ENSG

Sogndal Airport

Sogndal, Norway
METAR ENSG 222020Z VRB03KT 3000 SHSN VV008 00/00 Q0999 RMK WIND 3806FT 21023KT
Observed Flight Rules
Oct-22 @ 20:20 UTC (5 hours ago) Instrument Flight Rules
Wind Visibility Clouds Conditions
Variable at 3 knots 2,993 meters
  • Vertical visibility at 800' AGL
  • Snow
Temperatures Readings
Current 0°C / 32°F
Dewpoint 0°C / 32°F
Humidity 100%
Altimeter 29.5" Hg
Pressure 999 hPa
Elevation 497
METAR ENSG 222020Z VRB03KT 3000 SHSN VV008 00/00 Q0999 RMK WIND 3806FT 21023KT
Observed Flight Rules
Oct-22 @ 20:20 UTC
(5 hours ago)
LIFR
Wind Visibility
Variable at 3 knots 2,993 meters
Clouds
  • Vertical visibility at 800' AGL
Conditions
  • Snow
Temperature Dewpoint
0°C / 32°F 0°C / 32°F
Humidity Altimeter Pressure
100% 29.5" Hg 999 hPa